Flight Track Log - Related Links

Times and Time Zones

All times are in EDT time to prevent confusion due to time zone crossing. See the TCF5868 flight status page for this flight to view local times or setup timezone preferences in your user account.

Time Position Orientation Groundspeed Altitude Reporting Facility
EDT Latitude Longitude Course Direction KTS MPH feet Rate Location/Type
Sat 08:32:15 AM 33.0254 -79.9916 North  Level FlightAware Approximate
Sat 08:33:46 AM 33.1039 -79.9864 17° North 305 351 7,200  Level Jacksonville Center
Sat 08:34:46 AM 33.1867 -79.9564 14° North 320 368 10,100 2,500 Climbing Jacksonville Center
Sat 08:35:46 AM 33.2778 -79.9286 13° North 320 368 12,200 1,950 Climbing Jacksonville Center
Sat 08:36:46 AM 33.3814 -79.9003 13° North 347 399 14,000 2,050 Climbing Jacksonville Center
Sat 08:37:46 AM 33.4914 -79.8692 14° North 379 436 16,300 2,300 Climbing Jacksonville Center
Sat 08:38:46 AM 33.5950 -79.8381 13° North 407 468 18,600 2,200 Climbing Jacksonville Center
Sat 08:39:46 AM 33.7111 -79.8067 15° North 418 481 20,700 1,983 Climbing Jacksonville Center
Sat 08:40:47 AM 33.8269 -79.7700 12° North 423 487 22,600 1,750 Climbing Jacksonville Center
Sat 08:41:46 AM 33.9472 -79.7383 14° North 435 501 24,200 1,513 Climbing Jacksonville Center
Sat 08:42:46 AM 34.0714 -79.7011 13° North 440 506 25,600 1,300 Climbing Jacksonville Center
Sat 08:43:46 AM 34.1978 -79.6664 North 453 521 26,800 1,150 Climbing Jacksonville Center
Sat 08:44:46 AM 34.3353 -79.6514 North 458 527 27,900 937 Climbing Jacksonville Center
Sat 08:47:11 AM 34.6461 -79.6311 North 483 556 30,000 870 Climbing Washington Center
Sat 08:48:13 AM 34.7967 -79.6233 North 483 556 30,900 893 Climbing Washington Center
Sat 08:49:12 AM 34.9325 -79.6125 North 483 556 31,800 857 Climbing Washington Center
Sat 08:50:12 AM 35.0664 -79.6064 15° North 474 545 32,600 645 Climbing Washington Center
Sat 08:51:13 AM 35.1969 -79.5647 43° Northeast 481 554 33,100 545 Climbing Washington Center
Sat 08:52:13 AM 35.2989 -79.4500 43° Northeast 476 548 33,700 550 Climbing Washington Center
Sat 08:53:13 AM 35.4028 -79.3328 43° Northeast 491 565 34,200 500 Climbing Washington Center
Sat 08:54:13 AM 35.5044 -79.2150 43° Northeast 498 573 34,700 400 Climbing Washington Center
Sat 08:55:13 AM 35.6039 -79.0994 43° Northeast 498 573 35,000 153 Climbing Washington Center
Sat 08:56:11 AM 35.6944 -78.9961 43° Northeast 498 573 35,000  Level Washington Center
Sat 08:57:12 AM 35.7958 -78.8775 43° Northeast 492 566 35,000  Level Washington Center
Sat 08:58:13 AM 35.8972 -78.7611 42° Northeast 492 566 35,000  Level Washington Center
Sat 08:59:14 AM 36.0089 -78.6347 42° Northeast 486 559 35,000  Level Washington Center
Sat 09:00:12 AM 36.1097 -78.5231 43° Northeast 486 559 35,000  Level Washington Center
Sat 09:01:13 AM 36.2106 -78.4083 38° Northeast 486 559 35,000  Level Washington Center
Sat 09:02:13 AM 36.3172 -78.3039 38° Northeast 486 559 35,000  Level Washington Center
Sat 09:03:12 AM 36.4261 -78.1992 38° Northeast 486 559 35,000  Level Washington Center
Sat 09:04:13 AM 36.5306 -78.0992 38° Northeast 486 559 35,000  Level Washington Center
Sat 09:05:14 AM 36.6389 -77.9942 37° Northeast 486 559 35,000  Level Washington Center
Sat 09:06:14 AM 36.7517 -77.8886 37° Northeast 497 572 35,000  Level Washington Center
Sat 09:07:12 AM 36.8600 -77.7856 37° Northeast 492 566 35,000  Level Washington Center
Sat 09:08:13 AM 36.9681 -77.6844 38° Northeast 492 566 35,000  Level Washington Center
Sat 09:09:14 AM 37.0783 -77.5781 37° Northeast 492 566 35,000  Level Washington Center
Sat 09:10:14 AM 37.1886 -77.4742 37° Northeast 492 566 35,000  Level Washington Center
Sat 09:11:12 AM 37.2986 -77.3697 38° Northeast 497 572 35,000  Level Washington Center
Sat 09:12:13 AM 37.4086 -77.2625 37° Northeast 497 572 35,000  Level Washington Center
Sat 09:13:13 AM 37.5206 -77.1578 38° Northeast 497 572 35,000  Level Washington Center
Sat 09:14:13 AM 37.6306 -77.0497 39° Northeast 497 572 35,000  Level Washington Center
Sat 09:15:14 AM 37.7339 -76.9442 38° Northeast 490 564 35,000  Level Washington Center
Sat 09:16:12 AM 37.8456 -76.8356 38° Northeast 490 564 35,000  Level Washington Center
Sat 09:17:13 AM 37.9531 -76.7294 37° Northeast 490 564 35,000  Level Washington Center
Sat 09:18:12 AM 38.0625 -76.6231 38° Northeast 495 570 35,000  Level Washington Center
Sat 09:19:12 AM 38.1697 -76.5161 37° Northeast 495 570 35,000  Level Washington Center
Sat 09:20:12 AM 38.2767 -76.4117 36° Northeast 495 570 35,000  Level Washington Center
Sat 09:21:12 AM 38.3900 -76.3069 36° Northeast 495 570 35,000  Level Washington Center
Sat 09:22:12 AM 38.4906 -76.2125 34° Northeast 501 577 35,000 -248 Level Washington Center
Sat 09:23:13 AM 38.6036 -76.1150 37° Northeast 496 571 34,500 -1,475 Descending Washington Center
Sat 09:24:14 AM 38.7125 -76.0094 36° Northeast 491 565 32,000 -2,571 Descending Washington Center
Sat 09:25:12 AM 38.8253 -75.9061 37° Northeast 496 571 29,400 -2,521 Descending Washington Center
Sat 09:26:13 AM 38.9319 -75.8025 36° Northeast 496 571 27,000 -1,180 Descending Washington Center
Sat 09:27:14 AM 39.0383 -75.7011 36° Northeast 484 557 27,000  Level Washington Center
Sat 09:28:12 AM 39.1447 -75.6022 37° Northeast 479 551 27,000  Level Washington Center
Sat 09:29:13 AM 39.2508 -75.5006 35° Northeast 479 551 27,000  Level Washington Center
Sat 09:30:13 AM 39.3592 -75.4036 34° Northeast 473 544 27,000 -744 Level Washington Center
Sat 09:31:14 AM 39.4672 -75.3092 35° Northeast 473 544 25,500 -1,983 Descending Washington Center
Sat 09:32:14 AM 39.5714 -75.2147 37° Northeast 468 539 23,000 -2,644 Descending Washington Center
Sat 09:33:12 AM 39.6814 -75.1089 33° Northeast 456 525 20,300 -2,471 Descending Washington Center
Sat 09:34:13 AM 39.7831 -75.0219 38° Northeast 444 511 18,100 -2,209 Descending Washington Center
Sat 09:36:14 AM 39.9675 -74.8336 46° Northeast 427 491 13,600 -2,246 Descending Washington Center
Sat 09:37:28 AM 40.0667 -74.7000 49° Northeast 399 459 10,800 -1,612 Descending New York TRACON
Sat 09:38:28 AM 40.1333 -74.6000 53° Northeast 378 435 10,000 -400 Descending New York TRACON
Sat 09:39:28 AM 40.2000 -74.4833 44° Northeast 379 436 10,000 -300 Level New York TRACON
Sat 09:40:28 AM 40.2667 -74.4000 37° Northeast 319 367 9,400 -1,050 Descending New York TRACON
Sat 09:41:28 AM 40.3333 -74.3333 52° Northeast 300 345 7,900 -1,200 Descending New York TRACON
Sat 09:42:28 AM 40.3833 -74.2500 37° Northeast 291 335 7,000 -450 Descending New York TRACON
Sat 09:43:28 AM 40.4500 -74.1833 52° Northeast 293 337 7,000 -250 Level New York TRACON
Sat 09:44:28 AM 40.5000 -74.1000 24° Northeast 290 334 6,500 -1,200 Descending New York TRACON
Sat 09:45:28 AM 40.5833 -74.0500 349° North 299 344 4,600 -1,250 Descending New York TRACON
Sat 09:46:28 AM 40.6500 -74.0667 17° North 289 333 4,000 -300 Descending New York TRACON
Sat 09:47:28 AM 40.7333 -74.0333 37° Northeast 266 306 4,000  Level New York TRACON
Sat 09:48:28 AM 40.7833 -73.9833 37° Northeast 247 284 4,000  Level New York TRACON

Login

Don't have an account? Register now (free) for customized features, flight alerts, and more!